Time;durP1;ratioP1;P1;durP2;ratioP2;P2;SDS_P1;SDS_P2;PMS_P1;PMS_P2;Temp;Humidity;BMP_temperature;BMP_pressure;BME280_temperature;BME280_humidity;BME280_pressure;Samples;Min_cycle;Max_cycle;Signal;HPM_P1;HPM_P2
2022/04/13 00:03:22;;;;;;;16.52;7.78;;;;;;;;;;8237511;28;20097;-85
2022/04/13 00:07:25;;;;;;;18.20;9.50;;;;;;;;;;8236929;28;20459;-91
2022/04/13 00:11:29;;;;;;;18.58;8.30;;;;;;;;;;8236733;28;20042;-85
2022/04/13 00:15:31;;;;;;;18.15;9.13;;;;;;;;;;8236639;28;20047;-84
2022/04/13 00:19:34;;;;;;;17.67;7.88;;;;;;;;;;8236420;28;20483;-84
2022/04/13 00:23:37;;;;;;;15.45;8.20;;;;;;;;;;8236086;28;20066;-85
2022/04/13 00:27:41;;;;;;;23.88;10.48;;;;;;;;;;8236176;28;20050;-85
2022/04/13 00:31:44;;;;;;;16.95;8.02;;;;;;;;;;8235075;28;20054;-85
2022/04/13 00:35:46;;;;;;;18.98;7.93;;;;;;;;;;8235841;28;20054;-85
2022/04/13 00:39:49;;;;;;;17.65;8.38;;;;;;;;;;8235813;28;20046;-85
2022/04/13 00:44:05;;;;;;;19.27;9.23;;;;;;;;;;8235825;28;20508;-85
2022/04/13 00:48:10;;;;;;;18.27;8.77;;;;;;;;;;8235639;28;20093;-85
2022/04/13 00:52:16;;;;;;;17.67;7.82;;;;;;;;;;8235631;28;20042;-85
2022/04/13 00:56:23;;;;;;;18.98;8.63;;;;;;;;;;8235333;28;20069;-84
2022/04/13 01:00:28;;;;;;;22.95;10.73;;;;;;;;;;8235609;28;20073;-85
2022/04/13 01:04:31;;;;;;;21.80;10.25;;;;;;;;;;8230410;28;20051;-85
2022/04/13 01:08:35;;;;;;;24.77;9.68;;;;;;;;;;8232128;28;20415;-85
2022/04/13 01:12:38;;;;;;;21.00;9.93;;;;;;;;;;8234851;28;20491;-86
2022/04/13 01:16:42;;;;;;;31.63;10.65;;;;;;;;;;8211483;28;20043;-87
2022/04/13 01:20:52;;;;;;;15.52;7.95;;;;;;;;;;8226866;28;20427;-92
2022/04/13 01:24:56;;;;;;;18.67;9.07;;;;;;;;;;8235111;28;20495;-93
2022/04/13 01:28:59;;;;;;;25.73;10.65;;;;;;;;;;8226271;28;20051;-86
2022/04/13 01:33:03;;;;;;;14.18;8.23;;;;;;;;;;8227842;28;20097;-87
2022/04/13 01:37:05;;;;;;;20.10;8.82;;;;;;;;;;8233514;28;20039;-93
2022/04/13 01:41:10;;;;;;;18.27;8.40;;;;;;;;;;8199438;28;20483;-95
2022/04/13 01:45:19;;;;;;;19.00;8.70;;;;;;;;;;8233245;28;20057;-86
2022/04/13 01:49:23;;;;;;;33.85;14.57;;;;;;;;;;8234661;28;20637;-86
2022/04/13 01:53:26;;;;;;;24.20;12.82;;;;;;;;;;8233425;28;20435;-86
2022/04/13 01:57:30;;;;;;;21.48;9.82;;;;;;;;;;8232790;28;20046;-85
2022/04/13 02:01:34;;;;;;;17.83;8.48;;;;;;;;;;8233340;28;20057;-86
2022/04/13 02:05:37;;;;;;;18.45;9.48;;;;;;;;;;8234433;28;20038;-93
2022/04/13 02:09:40;;;;;;;23.63;11.73;;;;;;;;;;8233775;28;20050;-85
2022/04/13 02:13:44;;;;;;;19.35;9.77;;;;;;;;;;8233050;28;20046;-85
2022/04/13 02:17:46;;;;;;;19.08;8.75;;;;;;;;;;8233420;28;20054;-85
2022/04/13 02:21:49;;;;;;;19.60;8.73;;;;;;;;;;8222847;28;20043;-92
2022/04/13 02:25:51;;;;;;;;;;;;;;;;;;8218796;28;20059;-88
2022/04/13 02:29:56;;;;;;;19.75;9.90;;;;;;;;;;8232882;28;20290;-94
2022/04/13 02:33:59;;;;;;;23.35;10.38;;;;;;;;;;8232784;28;20061;-87
2022/04/13 02:38:04;;;;;;;20.50;9.70;;;;;;;;;;8233007;28;20166;-86
2022/04/13 02:42:12;;;;;;;24.50;10.85;;;;;;;;;;8232818;28;20051;-86
2022/04/13 02:46:18;;;;;;;29.15;11.57;;;;;;;;;;8230633;28;20046;-86
2022/04/13 02:50:23;;;;;;;29.40;11.40;;;;;;;;;;8225928;28;20058;-86
2022/04/13 02:54:28;;;;;;;36.67;12.85;;;;;;;;;;8231348;28;20058;-87
2022/04/13 02:58:32;;;;;;;35.28;12.00;;;;;;;;;;8247430;28;20317;-87
2022/04/13 03:02:39;;;;;;;22.35;10.35;;;;;;;;;;8236076;28;20074;-87
2022/04/13 03:06:42;;;;;;;22.90;9.30;;;;;;;;;;8232721;28;20045;-87
2022/04/13 03:10:44;;;;;;;21.80;10.60;;;;;;;;;;8236555;28;20411;-86
2022/04/13 03:14:47;;;;;;;31.38;11.15;;;;;;;;;;8236482;28;20062;-86
2022/04/13 03:18:51;;;;;;;21.23;10.57;;;;;;;;;;8231841;28;20042;-86
2022/04/13 03:22:54;;;;;;;27.08;10.95;;;;;;;;;;8238290;28;20062;-85
2022/04/13 03:26:57;;;;;;;19.83;9.05;;;;;;;;;;8238413;28;20439;-93
2022/04/13 03:31:00;;;;;;;30.83;12.68;;;;;;;;;;8238224;28;20070;-89
2022/04/13 03:35:05;;;;;;;40.30;16.90;;;;;;;;;;8238143;28;20542;-86
2022/04/13 03:39:07;;;;;;;40.22;16.77;;;;;;;;;;8238178;28;20051;-95
2022/04/13 03:43:10;;;;;;;30.35;13.20;;;;;;;;;;8237942;28;20116;-93
2022/04/13 03:47:12;;;;;;;30.48;13.82;;;;;;;;;;8237808;28;20553;-85
2022/04/13 03:51:16;;;;;;;37.42;19.42;;;;;;;;;;8237922;28;20479;-85
2022/04/13 03:55:22;;;;;;;33.22;14.55;;;;;;;;;;8237559;28;20071;-85
2022/04/13 03:59:25;;;;;;;26.52;11.18;;;;;;;;;;8237552;28;20043;-85
2022/04/13 04:03:28;;;;;;;39.95;20.83;;;;;;;;;;8237453;28;20047;-86
2022/04/13 04:07:32;;;;;;;43.13;17.55;;;;;;;;;;8237291;28;20094;-85
2022/04/13 04:11:34;;;;;;;29.95;15.85;;;;;;;;;;8237081;28;20491;-87
2022/04/13 04:15:37;;;;;;;27.35;13.95;;;;;;;;;;8237090;28;20042;-86
2022/04/13 04:19:39;;;;;;;31.85;17.05;;;;;;;;;;8236752;28;20046;-92
2022/04/13 04:23:44;;;;;;;41.28;19.83;;;;;;;;;;8236559;28;20529;-86
2022/04/13 04:27:46;;;;;;;38.03;12.75;;;;;;;;;;8236517;28;20415;-86
2022/04/13 04:31:53;;;;;;;25.42;10.65;;;;;;;;;;8236635;28;20051;-86
2022/04/13 04:35:55;;;;;;;19.00;9.93;;;;;;;;;;8236611;28;20051;-86
2022/04/13 04:39:59;;;;;;;45.15;16.35;;;;;;;;;;8235444;28;20057;-94
2022/04/13 04:44:02;;;;;;;26.25;11.30;;;;;;;;;;8236130;28;20058;-86
2022/04/13 04:48:06;;;;;;;33.05;10.90;;;;;;;;;;8235923;28;20050;-86
2022/04/13 04:52:09;;;;;;;20.80;10.02;;;;;;;;;;8235716;28;20042;-86
2022/04/13 04:56:13;;;;;;;22.35;10.15;;;;;;;;;;8235714;28;20047;-87
2022/04/13 05:00:18;;;;;;;17.52;8.75;;;;;;;;;;8235712;28;20487;-93
2022/04/13 05:04:21;;;;;;;23.88;7.53;;;;;;;;;;8235568;28;20062;-86
2022/04/13 05:08:23;;;;;;;21.42;9.15;;;;;;;;;;8235399;28;20051;-86
2022/04/13 05:12:28;;;;;;;23.63;11.80;;;;;;;;;;8235350;28;20046;-86
2022/04/13 05:16:31;;;;;;;28.33;13.48;;;;;;;;;;8234831;28;20039;-86
2022/04/13 05:20:34;;;;;;;24.67;12.32;;;;;;;;;;8235007;28;20446;-87
2022/04/13 05:24:36;;;;;;;122.20;36.10;;;;;;;;;;8234881;28;20138;-87
2022/04/13 05:28:41;;;;;;;39.05;15.52;;;;;;;;;;8235101;28;20487;-86
2022/04/13 05:32:48;;;;;;;27.15;13.20;;;;;;;;;;8234540;28;20046;-88
2022/04/13 05:36:51;;;;;;;23.55;13.05;;;;;;;;;;8234620;28;20043;-95
2022/04/13 05:40:53;;;;;;;19.67;10.95;;;;;;;;;;8234524;28;20101;-87
2022/04/13 05:44:58;;;;;;;17.83;9.63;;;;;;;;;;8234530;28;20100;-87
2022/04/13 05:49:00;;;;;;;24.25;11.80;;;;;;;;;;8234523;28;20109;-87
2022/04/13 05:53:03;;;;;;;27.42;18.58;;;;;;;;;;8234371;28;20055;-87
2022/04/13 05:57:06;;;;;;;24.60;13.55;;;;;;;;;;8234477;28;20089;-87
2022/04/13 06:01:10;;;;;;;16.10;7.88;;;;;;;;;;8234145;28;20112;-95
2022/04/13 06:05:13;;;;;;;19.73;9.73;;;;;;;;;;8234039;28;20154;-95
2022/04/13 06:09:16;;;;;;;16.00;7.65;;;;;;;;;;8233915;28;20054;-88
2022/04/13 06:13:19;;;;;;;39.78;21.80;;;;;;;;;;8233770;28;20057;-89
2022/04/13 06:17:23;;;;;;;17.92;10.45;;;;;;;;;;8233577;28;20097;-88
2022/04/13 06:21:26;;;;;;;14.05;7.07;;;;;;;;;;8233839;28;20046;-88
2022/04/13 06:25:29;;;;;;;24.25;13.07;;;;;;;;;;8233756;28;20062;-88
2022/04/13 06:29:32;;;;;;;24.75;13.43;;;;;;;;;;8235142;28;20050;-90
2022/04/13 06:33:36;;;;;;;29.73;24.98;;;;;;;;;;8239640;28;20054;-87
2022/04/13 06:37:40;;;;;;;15.60;8.70;;;;;;;;;;8238779;28;20086;-89
2022/04/13 06:41:43;;;;;;;17.60;15.25;;;;;;;;;;8240005;28;20166;-87
2022/04/13 06:45:46;;;;;;;11.60;6.20;;;;;;;;;;8239384;28;20054;-87
2022/04/13 06:49:50;;;;;;;9.35;6.05;;;;;;;;;;8239862;28;20491;-95
2022/04/13 06:53:52;;;;;;;12.27;7.00;;;;;;;;;;8251114;28;20050;-87
2022/04/13 06:57:55;;;;;;;11.43;8.43;;;;;;;;;;8262640;28;20479;-91
2022/04/13 07:01:58;;;;;;;8.02;4.07;;;;;;;;;;8236863;28;20407;-87
2022/04/13 07:06:02;;;;;;;8.07;4.15;;;;;;;;;;8235076;28;20122;-86
2022/04/13 07:10:07;;;;;;;7.35;4.43;;;;;;;;;;8210019;28;20499;-88
2022/04/13 07:14:16;;;;;;;6.53;4.45;;;;;;;;;;8234901;28;20038;-87
2022/04/13 07:18:34;;;;;;;6.47;3.88;;;;;;;;;;8233620;28;20101;-88
2022/04/13 07:22:52;;;;;;;11.57;5.40;;;;;;;;;;8235968;28;20538;-88
2022/04/13 07:27:01;;;;;;;6.13;3.63;;;;;;;;;;8238007;28;20047;-89
2022/04/13 07:31:07;;;;;;;9.27;3.95;;;;;;;;;;8209761;28;20082;-91
2022/04/13 07:35:14;;;;;;;8.80;4.68;;;;;;;;;;8211054;28;20078;-88
2022/04/13 07:39:28;;;;;;;9.05;3.95;;;;;;;;;;8217922;28;20126;-88
2022/04/13 07:43:36;;;;;;;5.50;3.60;;;;;;;;;;8236876;28;20039;-94
2022/04/13 07:47:42;;;;;;;7.47;3.83;;;;;;;;;;8239510;28;20042;-92
2022/04/13 07:51:48;;;;;;;6.82;3.63;;;;;;;;;;8238969;28;20057;-93
2022/04/13 07:55:55;;;;;;;6.95;3.65;;;;;;;;;;8228913;28;20043;-93
2022/04/13 07:59:59;;;;;;;7.00;3.67;;;;;;;;;;8227063;28;20081;-91
2022/04/13 08:04:04;;;;;;;6.25;3.15;;;;;;;;;;8237753;28;20054;-95
2022/04/13 08:08:10;;;;;;;9.07;3.60;;;;;;;;;;8235412;28;20039;-91
2022/04/13 08:12:24;;;;;;;7.90;4.15;;;;;;;;;;8228184;28;20113;-92
2022/04/13 08:16:31;;;;;;;6.18;3.22;;;;;;;;;;8228233;28;20039;-94
2022/04/13 08:20:42;;;;;;;5.55;2.85;;;;;;;;;;8224638;28;20098;-91
2022/04/13 08:24:51;;;;;;;12.77;9.15;;;;;;;;;;8204947;28;20499;-92
2022/04/13 08:29:03;;;;;;;6.28;2.97;;;;;;;;;;8236123;28;20471;-92
2022/04/13 08:33:09;;;;;;;19.35;8.52;;;;;;;;;;8233981;28;20051;-92
2022/04/13 08:37:17;;;;;;;5.22;3.17;;;;;;;;;;8235289;28;20047;-93
2022/04/13 08:41:29;;;;;;;4.80;2.92;;;;;;;;;;8235301;28;20384;-92
2022/04/13 08:45:49;;;;;;;5.55;2.80;;;;;;;;;;8235596;28;20565;-91
2022/04/13 08:49:56;;;;;;;11.65;7.43;;;;;;;;;;8235272;28;20138;-91
2022/04/13 08:54:17;;;;;;;5.53;3.08;;;;;;;;;;8234413;28;20105;-91
2022/04/13 08:58:49;;;;;;;5.68;3.10;;;;;;;;;;8235246;28;20073;-90
2022/04/13 09:03:25;;;;;;;7.20;3.78;;;;;;;;;;8235003;28;20038;-91
2022/04/13 09:07:37;;;;;;;6.63;3.30;;;;;;;;;;8234867;28;20038;-91
2022/04/13 09:11:46;;;;;;;6.57;2.97;;;;;;;;;;8234691;28;20043;-91
2022/04/13 09:15:53;;;;;;;6.72;3.80;;;;;;;;;;8234817;28;20042;-90
2022/04/13 09:20:04;;;;;;;7.13;3.60;;;;;;;;;;8234409;28;20050;-90
2022/04/13 09:24:11;;;;;;;5.63;3.15;;;;;;;;;;8233759;28;20082;-91
2022/04/13 09:28:19;;;;;;;6.78;3.67;;;;;;;;;;8234852;28;20046;-90
2022/04/13 09:32:24;;;;;;;5.47;2.88;;;;;;;;;;8234224;28;20043;-90
2022/04/13 09:36:35;;;;;;;7.43;3.08;;;;;;;;;;8234688;28;20051;-87
2022/04/13 09:40:40;;;;;;;8.15;4.10;;;;;;;;;;8233866;28;20110;-87
2022/04/13 09:45:01;;;;;;;7.32;3.05;;;;;;;;;;8226329;28;20432;-87
2022/04/13 09:49:10;;;;;;;6.88;3.00;;;;;;;;;;8482490;23;20094;-81
2022/04/13 09:53:16;;;;;;;7.60;3.42;;;;;;;;;;8221413;28;20051;-81
2022/04/13 09:57:22;;;;;;;10.55;4.45;;;;;;;;;;8208315;28;20089;-80
2022/04/13 10:01:25;;;;;;;5.63;2.97;;;;;;;;;;8215617;28;20379;-81
2022/04/13 10:05:31;;;;;;;7.15;3.42;;;;;;;;;;8233569;28;20050;-86
2022/04/13 10:09:36;;;;;;;5.97;3.25;;;;;;;;;;8216863;28;20130;-81
2022/04/13 10:13:40;;;;;;;6.25;2.97;;;;;;;;;;8227295;28;20043;-81
2022/04/13 10:17:44;;;;;;;7.18;2.95;;;;;;;;;;8226986;28;20054;-81
2022/04/13 10:21:51;;;;;;;18.25;6.00;;;;;;;;;;8229798;28;20054;-81
2022/04/13 10:26:12;;;;;;;5.25;3.00;;;;;;;;;;8233005;28;20438;-81
2022/04/13 10:30:27;;;;;;;4.90;2.60;;;;;;;;;;8217809;28;20121;-83
2022/04/13 10:34:34;;;;;;;5.05;2.70;;;;;;;;;;8225412;28;20051;-84
2022/04/13 10:38:37;;;;;;;9.23;4.38;;;;;;;;;;8201337;28;20561;-84
2022/04/13 10:42:48;;;;;;;4.13;2.30;;;;;;;;;;8232488;28;20046;-84
2022/04/13 10:46:56;;;;;;;8.05;3.22;;;;;;;;;;8232768;28;20050;-84
2022/04/13 10:51:08;;;;;;;8.63;3.67;;;;;;;;;;8232923;28;20054;-84
2022/04/13 10:55:13;;;;;;;6.53;2.80;;;;;;;;;;8255779;28;20077;-84
2022/04/13 10:59:24;;;;;;;9.65;3.60;;;;;;;;;;8265737;28;20043;-84
2022/04/13 11:03:30;;;;;;;5.60;2.70;;;;;;;;;;8254510;28;20047;-84
2022/04/13 11:07:34;;;;;;;5.78;2.60;;;;;;;;;;8232538;28;20055;-84
2022/04/13 11:11:38;;;;;;;6.65;2.40;;;;;;;;;;8232707;28;20458;-85
2022/04/13 11:15:44;;;;;;;10.60;3.40;;;;;;;;;;8234124;28;20182;-85
2022/04/13 11:19:49;;;;;;;7.28;3.22;;;;;;;;;;8238382;28;20058;-85
2022/04/13 11:23:54;;;;;;;4.78;2.80;;;;;;;;;;8238342;28;20101;-84
2022/04/13 11:27:58;;;;;;;7.32;3.10;;;;;;;;;;8238215;28;20046;-84
2022/04/13 11:32:16;;;;;;;7.13;3.28;;;;;;;;;;8238084;28;20465;-85
2022/04/13 11:36:20;;;;;;;5.25;2.67;;;;;;;;;;8237919;28;20487;-85
2022/04/13 11:40:23;;;;;;;6.10;2.88;;;;;;;;;;8237671;28;20138;-84
2022/04/13 11:44:26;;;;;;;7.85;3.50;;;;;;;;;;8219555;28;20043;-85
2022/04/13 11:48:37;;;;;;;6.35;2.92;;;;;;;;;;8209054;28;20102;-84
2022/04/13 11:52:42;;;;;;;14.68;4.82;;;;;;;;;;8222173;28;20112;-84
2022/04/13 11:56:52;;;;;;;5.15;2.30;;;;;;;;;;8209885;28;20499;-84
2022/04/13 12:00:57;;;;;;;7.75;2.80;;;;;;;;;;8209030;28;20046;-84
2022/04/13 12:05:07;;;;;;;9.23;4.35;;;;;;;;;;8236894;28;20055;-84
2022/04/13 12:09:26;;;;;;;8.25;3.83;;;;;;;;;;8230579;28;20046;-84
2022/04/13 12:13:33;;;;;;;5.43;2.33;;;;;;;;;;8213979;28;20046;-84
2022/04/13 12:17:37;;;;;;;5.97;2.53;;;;;;;;;;8205151;28;20551;-83
2022/04/13 12:21:43;;;;;;;11.07;3.50;;;;;;;;;;8207123;28;20042;-84
2022/04/13 12:25:47;;;;;;;3.85;2.40;;;;;;;;;;8216571;28;20484;-86
2022/04/13 12:29:51;;;;;;;6.22;2.25;;;;;;;;;;8204131;28;20051;-84
2022/04/13 12:33:54;;;;;;;4.80;2.55;;;;;;;;;;8203210;28;20134;-84
2022/04/13 12:38:00;;;;;;;4.32;2.40;;;;;;;;;;8204103;28;20058;-84
2022/04/13 12:42:05;;;;;;;4.22;2.17;;;;;;;;;;8203917;28;20078;-84
2022/04/13 12:46:10;;;;;;;5.35;2.35;;;;;;;;;;8203525;28;20058;-85
2022/04/13 12:50:13;;;;;;;3.83;2.17;;;;;;;;;;8203445;28;20058;-85
2022/04/13 12:54:20;;;;;;;4.65;2.53;;;;;;;;;;8203615;28;20419;-85
2022/04/13 12:58:23;;;;;;;6.97;2.45;;;;;;;;;;8203484;28;20054;-84
2022/04/13 13:02:27;;;;;;;6.20;2.45;;;;;;;;;;8203214;28;20135;-85
2022/04/13 13:06:32;;;;;;;5.32;2.63;;;;;;;;;;8203248;28;20407;-85
2022/04/13 13:10:37;;;;;;;8.90;3.78;;;;;;;;;;8203725;28;20526;-84
2022/04/13 13:14:43;;;;;;;4.97;2.53;;;;;;;;;;8203058;28;20051;-85
2022/04/13 13:18:47;;;;;;;6.80;2.70;;;;;;;;;;8203337;28;20094;-84
2022/04/13 13:22:51;;;;;;;11.82;6.90;;;;;;;;;;8202669;28;20134;-85
2022/04/13 13:26:55;;;;;;;4.80;2.40;;;;;;;;;;8202556;28;20047;-86
2022/04/13 13:31:02;;;;;;;5.65;3.00;;;;;;;;;;8202520;28;20055;-85
2022/04/13 13:35:07;;;;;;;4.03;2.22;;;;;;;;;;8202891;28;20046;-85
2022/04/13 13:39:12;;;;;;;3.67;2.40;;;;;;;;;;8201785;28;20055;-85
2022/04/13 13:43:41;;;;;;;4.28;2.70;;;;;;;;;;8202614;28;20044;-85
2022/04/13 13:47:44;;;;;;;4.93;2.80;;;;;;;;;;8213596;28;20047;-85
2022/04/13 13:51:48;;;;;;;7.13;2.53;;;;;;;;;;8210409;28;20051;-83
2022/04/13 13:55:51;;;;;;;6.57;3.00;;;;;;;;;;8210918;28;20534;-85
2022/04/13 13:59:56;;;;;;;4.82;2.20;;;;;;;;;;8205592;28;20055;-86
2022/04/13 14:03:59;;;;;;;4.53;2.40;;;;;;;;;;8223730;28;20047;-83
2022/04/13 14:08:05;;;;;;;5.22;2.53;;;;;;;;;;8202032;28;20056;-86
2022/04/13 14:12:09;;;;;;;18.48;8.20;;;;;;;;;;8219486;28;20546;-86
2022/04/13 14:16:14;;;;;;;7.45;3.03;;;;;;;;;;8233256;28;20054;-86
2022/04/13 14:20:19;;;;;;;4.22;2.63;;;;;;;;;;8221092;28;20047;-84
2022/04/13 14:24:30;;;;;;;4.18;2.35;;;;;;;;;;8223971;28;20050;-86
2022/04/13 14:29:01;;;;;;;9.35;4.20;;;;;;;;;;8199229;28;20061;-84
2022/04/13 14:38:30;;;;;;;12.90;8.02;;;;;;;;;;8200729;29;20051;-84
2022/04/13 14:43:13;;;;;;;17.05;9.45;;;;;;;;;;8200773;28;20380;-84
2022/04/13 14:47:33;;;;;;;7.75;3.88;;;;;;;;;;8200394;28;20055;-85
2022/04/13 14:51:45;;;;;;;7.10;3.10;;;;;;;;;;8204192;28;20082;-85
2022/04/13 14:55:49;;;;;;;10.30;7.15;;;;;;;;;;8239971;28;20046;-86
2022/04/13 14:59:52;;;;;;;9.25;4.90;;;;;;;;;;8229423;28;20062;-86
2022/04/13 15:03:56;;;;;;;57.42;31.52;;;;;;;;;;8209641;28;20097;-86
2022/04/13 15:08:00;;;;;;;40.88;17.23;;;;;;;;;;8205171;28;20043;-87
2022/04/13 15:12:04;;;;;;;6.38;3.28;;;;;;;;;;8205373;28;20051;-86
2022/04/13 15:16:07;;;;;;;18.15;11.75;;;;;;;;;;8205642;28;20063;-84
2022/04/13 15:20:13;;;;;;;25.60;13.77;;;;;;;;;;8204970;28;20070;-84
2022/04/13 15:24:19;;;;;;;31.48;17.63;;;;;;;;;;8205220;28;20055;-85
2022/04/13 15:28:27;;;;;;;89.97;42.15;;;;;;;;;;8206026;29;20451;-84
2022/04/13 15:32:31;;;;;;;17.58;9.60;;;;;;;;;;8205638;28;20399;-84
2022/04/13 15:36:35;;;;;;;14.27;8.20;;;;;;;;;;8205809;28;20043;-84
2022/04/13 15:40:39;;;;;;;21.35;13.30;;;;;;;;;;8204834;28;20077;-85
2022/04/13 15:44:44;;;;;;;19.90;9.50;;;;;;;;;;8204687;28;20055;-85
2022/04/13 15:48:48;;;;;;;14.55;8.48;;;;;;;;;;8204264;28;20058;-84
2022/04/13 15:52:53;;;;;;;11.20;6.60;;;;;;;;;;8204747;28;20047;-85
2022/04/13 15:56:59;;;;;;;10.60;4.43;;;;;;;;;;8205404;28;20802;-84
2022/04/13 16:01:05;;;;;;;8.43;5.50;;;;;;;;;;8204439;28;20069;-85
2022/04/13 16:05:10;;;;;;;19.17;10.82;;;;;;;;;;8205044;28;20053;-85
2022/04/13 16:09:15;;;;;;;9.13;5.60;;;;;;;;;;8204431;29;20101;-85
2022/04/13 16:13:21;;;;;;;8.95;5.70;;;;;;;;;;8218881;28;20035;-85
2022/04/13 16:17:25;;;;;;;9.73;5.68;;;;;;;;;;8228314;28;20050;-86
2022/04/13 16:21:28;;;;;;;11.55;4.90;;;;;;;;;;8213113;28;20051;-85
2022/04/13 16:25:32;;;;;;;8.32;4.45;;;;;;;;;;8226340;28;20042;-78
2022/04/13 16:29:37;;;;;;;11.60;6.15;;;;;;;;;;8232087;28;20049;-77
2022/04/13 16:33:41;;;;;;;16.42;7.55;;;;;;;;;;8234636;28;20383;-78
2022/04/13 16:37:45;;;;;;;11.10;6.30;;;;;;;;;;8234883;28;20050;-77
2022/04/13 16:41:48;;;;;;;11.35;6.50;;;;;;;;;;8236124;28;20553;-77
2022/04/13 16:45:52;;;;;;;11.40;8.23;;;;;;;;;;8234589;28;20171;-78
2022/04/13 16:49:55;;;;;;;15.20;9.20;;;;;;;;;;8235425;28;20055;-78
2022/04/13 16:53:58;;;;;;;13.88;7.55;;;;;;;;;;8235540;28;20141;-78
2022/04/13 16:58:01;;;;;;;15.95;9.52;;;;;;;;;;8235290;28;20046;-78
2022/04/13 17:02:06;;;;;;;10.90;5.95;;;;;;;;;;8235015;28;20051;-78
2022/04/13 17:06:10;;;;;;;98.40;38.28;;;;;;;;;;8214781;28;20051;-77
2022/04/13 17:10:13;;;;;;;16.67;8.25;;;;;;;;;;8225191;28;20522;-78
2022/04/13 17:14:44;;;;;;;17.13;9.43;;;;;;;;;;8219953;28;20198;-78
2022/04/13 17:18:49;;;;;;;15.32;7.35;;;;;;;;;;8211304;28;20113;-78
2022/04/13 17:22:52;;;;;;;21.42;11.80;;;;;;;;;;8234606;28;20051;-79
2022/04/13 17:26:55;;;;;;;24.90;11.45;;;;;;;;;;8215456;28;20047;-78
2022/04/13 17:30:58;;;;;;;40.30;7.97;;;;;;;;;;8220349;28;20110;-78
2022/04/13 17:35:11;;;;;;;11.73;6.13;;;;;;;;;;8223411;28;20101;-78
2022/04/13 17:39:17;;;;;;;13.40;5.38;;;;;;;;;;8222611;28;20490;-78
2022/04/13 17:43:22;;;;;;;33.15;11.38;;;;;;;;;;8233902;28;20134;-77
2022/04/13 17:47:25;;;;;;;21.13;9.55;;;;;;;;;;8233669;28;20067;-77
2022/04/13 17:51:29;;;;;;;17.33;7.82;;;;;;;;;;8233165;28;20399;-77
2022/04/13 17:55:33;;;;;;;14.30;6.90;;;;;;;;;;8233596;28;20451;-77
2022/04/13 17:59:38;;;;;;;19.38;8.25;;;;;;;;;;8233411;28;20050;-77
2022/04/13 18:03:42;;;;;;;28.70;12.65;;;;;;;;;;8210578;28;20097;-78
2022/04/13 18:08:16;;;;;;;58.50;23.05;;;;;;;;;;8232364;28;20055;-77
2022/04/13 18:12:22;;;;;;;36.80;17.65;;;;;;;;;;8220312;28;20047;-77
2022/04/13 18:16:43;;;;;;;28.75;14.50;;;;;;;;;;8213962;28;20475;-77
2022/04/13 18:21:14;;;;;;;27.75;16.73;;;;;;;;;;8232106;28;20043;-78
2022/04/13 18:25:43;;;;;;;72.88;30.10;;;;;;;;;;8214082;28;20067;-77
2022/04/13 18:29:52;;;;;;;64.70;23.35;;;;;;;;;;8238344;28;20113;-78
2022/04/13 18:39:23;;;;;;;28.80;16.33;;;;;;;;;;8226971;28;20125;-77
2022/04/13 18:43:39;;;;;;;30.58;13.60;;;;;;;;;;8209641;28;20054;-77
2022/04/13 18:48:39;;;;;;;42.17;18.65;;;;;;;;;;8232591;28;20070;-77
2022/04/13 18:53:38;;;;;;;16.42;8.30;;;;;;;;;;8238297;28;20073;-78
2022/04/13 18:57:53;;;;;;;20.38;11.43;;;;;;;;;;8210902;28;20062;-78
2022/04/13 19:07:29;;;;;;;17.67;8.27;;;;;;;;;;8226121;28;20047;-78
2022/04/13 19:11:48;;;;;;;18.05;8.40;;;;;;;;;;8224177;28;20462;-78
2022/04/13 19:16:37;;;;;;;55.72;25.00;;;;;;;;;;8210073;28;20057;-78
2022/04/13 19:20:47;;;;;;;49.53;22.70;;;;;;;;;;8227586;28;20047;-78
2022/04/13 19:24:57;;;;;;;22.20;11.70;;;;;;;;;;8226378;28;20051;-78
2022/04/13 19:29:09;;;;;;;47.30;23.75;;;;;;;;;;8217519;28;20430;-78
2022/04/13 19:33:17;;;;;;;101.45;43.85;;;;;;;;;;8227818;28;20059;-78
2022/04/13 19:37:24;;;;;;;108.55;47.83;;;;;;;;;;8218966;28;20182;-78
2022/04/13 19:41:28;;;;;;;93.28;42.42;;;;;;;;;;8224722;28;20538;-78
2022/04/13 19:45:41;;;;;;;32.00;12.88;;;;;;;;;;8221669;28;20130;-78
2022/04/13 19:49:44;;;;;;;;;;;;;;;;;;8220933;28;20090;-77
2022/04/13 19:53:49;;;;;;;21.58;10.73;;;;;;;;;;8216715;28;19977;-77
2022/04/13 19:57:53;;;;;;;23.48;10.65;;;;;;;;;;8223281;28;20043;-78
2022/04/13 20:01:57;;;;;;;22.08;9.75;;;;;;;;;;8219847;28;20054;-77
2022/04/13 20:06:00;;;;;;;23.80;12.15;;;;;;;;;;8222428;28;20067;-77
2022/04/13 20:10:06;;;;;;;19.25;8.77;;;;;;;;;;8220900;28;20050;-77
2022/04/13 20:14:10;;;;;;;23.80;11.68;;;;;;;;;;8221374;28;20047;-77
2022/04/13 20:18:13;;;;;;;67.35;30.10;;;;;;;;;;8216081;28;20058;-77
2022/04/13 20:22:17;;;;;;;67.35;32.08;;;;;;;;;;8218106;28;20458;-78
2022/04/13 20:26:23;;;;;;;54.08;25.30;;;;;;;;;;8219806;28;20108;-77
2022/04/13 20:30:27;;;;;;;61.75;28.77;;;;;;;;;;8221940;28;20043;-77
2022/04/13 20:34:31;;;;;;;67.75;31.77;;;;;;;;;;8219470;28;20450;-77
2022/04/13 20:38:34;;;;;;;39.28;18.38;;;;;;;;;;8219127;28;20050;-78
2022/04/13 20:42:40;;;;;;;25.63;13.15;;;;;;;;;;8222493;28;20051;-77
2022/04/13 20:46:42;;;;;;;56.78;25.52;;;;;;;;;;8218991;28;20406;-77
2022/04/13 20:50:46;;;;;;;24.25;11.88;;;;;;;;;;8214499;28;20050;-77
2022/04/13 20:54:50;;;;;;;33.75;16.10;;;;;;;;;;8217245;28;20102;-77
2022/04/13 20:58:54;;;;;;;95.35;47.55;;;;;;;;;;8217508;28;20058;-78
2022/04/13 21:02:57;;;;;;;46.10;22.48;;;;;;;;;;8218321;28;20122;-77
2022/04/13 21:07:00;;;;;;;32.25;16.90;;;;;;;;;;8219331;28;20055;-77
2022/04/13 21:11:03;;;;;;;43.08;18.38;;;;;;;;;;8203583;28;20118;-77
2022/04/13 21:15:11;;;;;;;35.65;16.42;;;;;;;;;;8202941;29;20058;-77
2022/04/13 21:19:18;;;;;;;30.38;15.45;;;;;;;;;;8203364;29;20542;-77
2022/04/13 21:23:32;;;;;;;40.30;18.90;;;;;;;;;;8203295;29;20047;-77
2022/04/13 21:27:34;;;;;;;62.05;30.98;;;;;;;;;;8203187;28;20388;-77
2022/04/13 21:31:39;;;;;;;42.70;19.40;;;;;;;;;;8202479;29;20047;-77
2022/04/13 21:35:43;;;;;;;34.53;15.18;;;;;;;;;;8202963;29;20483;-77
2022/04/13 21:39:46;;;;;;;34.70;18.60;;;;;;;;;;8202261;29;20051;-78
2022/04/13 21:43:48;;;;;;;33.47;16.33;;;;;;;;;;8202685;29;20505;-77
2022/04/13 21:47:52;;;;;;;41.10;20.35;;;;;;;;;;8202070;28;20051;-77
2022/04/13 21:51:55;;;;;;;43.25;21.50;;;;;;;;;;8202411;29;20560;-77
2022/04/13 21:55:58;;;;;;;31.67;15.82;;;;;;;;;;8201966;28;20047;-77
2022/04/13 22:00:00;;;;;;;35.05;15.80;;;;;;;;;;8201660;28;20090;-77
2022/04/13 22:04:05;;;;;;;31.45;14.15;;;;;;;;;;8201780;29;20089;-77
2022/04/13 22:08:08;;;;;;;30.77;14.75;;;;;;;;;;8202202;28;20079;-77
2022/04/13 22:12:11;;;;;;;27.65;14.95;;;;;;;;;;8202132;29;20051;-77
2022/04/13 22:16:13;;;;;;;26.67;13.75;;;;;;;;;;8202038;28;20658;-77
2022/04/13 22:20:17;;;;;;;27.58;13.50;;;;;;;;;;8201619;28;20047;-77
2022/04/13 22:24:20;;;;;;;32.00;15.63;;;;;;;;;;8201440;29;20054;-78
2022/04/13 22:28:22;;;;;;;26.92;13.63;;;;;;;;;;8201825;28;20043;-78
2022/04/13 22:32:25;;;;;;;;;;;;;;;;;;8201685;28;20047;-77
2022/04/13 22:36:29;;;;;;;27.02;12.20;;;;;;;;;;8201191;29;19922;-77
2022/04/13 22:40:31;;;;;;;21.70;10.73;;;;;;;;;;8201455;29;20047;-77
2022/04/13 22:44:34;;;;;;;20.27;11.18;;;;;;;;;;8201286;29;20054;-77
2022/04/13 22:48:36;;;;;;;19.63;9.77;;;;;;;;;;8200889;29;20063;-77
2022/04/13 22:52:40;;;;;;;22.77;11.43;;;;;;;;;;8201448;28;20388;-77
2022/04/13 22:56:43;;;;;;;23.25;10.70;;;;;;;;;;8201001;29;20054;-77
2022/04/13 23:00:45;;;;;;;20.67;10.63;;;;;;;;;;8200993;29;20047;-79
2022/04/13 23:04:48;;;;;;;;;;;;;;;;;;8255738;28;20050;-77
2022/04/13 23:08:52;;;;;;;22.35;10.77;;;;;;;;;;8265471;28;19928;-78
2022/04/13 23:12:54;;;;;;;22.38;10.57;;;;;;;;;;8256469;28;20082;-78
2022/04/13 23:16:56;;;;;;;22.35;10.95;;;;;;;;;;8239702;28;20050;-78
2022/04/13 23:20:58;;;;;;;;;;;;;;;;;;8239511;28;20042;-78
2022/04/13 23:25:03;;;;;;;24.35;10.73;;;;;;;;;;8238919;28;19926;-78
2022/04/13 23:29:05;;;;;;;25.02;10.55;;;;;;;;;;8238340;28;20053;-78
2022/04/13 23:33:08;;;;;;;27.15;11.43;;;;;;;;;;8233338;28;20106;-79
2022/04/13 23:37:11;;;;;;;24.38;10.60;;;;;;;;;;8205377;28;20047;-79
2022/04/13 23:41:15;;;;;;;23.13;11.05;;;;;;;;;;8219164;28;20633;-79
2022/04/13 23:45:17;;;;;;;23.08;11.57;;;;;;;;;;8207402;28;20051;-78
2022/04/13 23:49:20;;;;;;;22.45;10.73;;;;;;;;;;8204705;28;20066;-78
2022/04/13 23:53:23;;;;;;;24.25;12.25;;;;;;;;;;8209252;28;20047;-78
2022/04/13 23:57:27;;;;;;;25.23;10.63;;;;;;;;;;8220772;28;20058;-78
